Latest Coastal Weather Observations for Garden Island

IDW60701

Issued at 8:23 pm WST Sunday 9 August 2020 (issued every 10 minutes, with the page automatically refreshed every 10 minutes)

About coastal observations | Map of coastal stations | Coastal observations for WA | Marine services | Other Formats
Station Details ID: 009256 Name: GARDEN ISLAND HSF Lat: -32.24 Lon: 115.68 Height: 6.0 m
Data from the previous 72 hours. | See also: Recent months at Garden Island
Date/Time
WST
Wind Sea
Height
m
Swell Vis
km
Cloud Weather Temp
°C
Press
hPa
Rain since
9am
mm
Dir  Spd
kts
Gust
kts
Height
m
Period
s
Dir
09/08:17pm NW 20 27 - - - - - - - 15.6 997.1 -
09/08:00pm NW 21 27 - - - - - - - 16.5 996.8 -
09/07:38pm NW 17 26 - - - - - - - 16.4 996.8 -
09/07:30pm NW 14 18 - - - - - - - 15.5 996.5 -
09/07:16pm NW 23 33 - - - - - - - 14.9 996.6 -
09/07:00pm NW 23 31 - - - - - - - 16.7 996.8 -
09/06:47pm NW 21 31 - - - - - - - 16.9 996.9 -
09/06:30pm NW 21 30 - - - - - - - 16.7 996.9 -
09/06:00pm NW 23 31 - - - - - - - 16.8 996.5 -
09/05:36pm NW 22 32 - - - - - - - 16.9 996.2 -
09/05:30pm NW 20 29 - - - - - - - 16.5 996.1 -
09/05:00pm NW 20 27 - - - - - - - 16.6 996.2 -
09/04:30pm NW 21 26 - - - - - - - 17.2 996.1 -
09/04:00pm NW 18 24 - - - - - - - 17.0 995.9 -
09/03:30pm N 14 21 - - - - - - - 16.4 995.9 -
09/03:05pm N 17 27 - - - - - - - 16.4 996.1 -
09/03:00pm N 19 27 - - - - - - - 15.8 995.9 -
09/02:30pm N 14 22 - - - - - - - 15.7 995.8 -
09/02:00pm N 16 25 - - - - - - - 14.3 996.3 -
09/01:34pm N 18 29 - - - - - - - 14.9 996.1 -
09/01:30pm N 17 23 - - - - - - - 15.1 995.9 -
09/01:00pm NNE 19 27 - - - - - - - 14.7 995.9 -
09/12:30pm NNE 21 27 - - - - - - - 14.3 996.6 -
09/12:11pm NNE 22 33 - - - - - - - 14.0 996.8 -
09/12:00pm NNE 22 30 - - - - - - - 14.0 996.9 -
09/11:30am NNE 25 32 - - - - - - - 14.1 998.0 -
09/11:05am NNE 19 29 - - - - - - - 13.9 997.4 -
09/11:00am NNE 20 26 - - - - - - - 14.0 997.6 -
09/10:30am N 21 32 - - - - - - - 13.6 999.3 -
09/10:00am NNE 23 35 - - - - - - - 13.9 998.4 -
09/09:30am N 22 35 - - - - - - - 13.5 999.1 -
09/09:00am NNE 26 40 - - - - - - - 13.3 998.9 -
09/08:30am NNE 25 37 - - - - - - - 13.7 998.8 -
09/08:00am NNE 24 38 - - - - - - - 14.2 998.9 -
09/07:34am NNE 20 30 - - - - - - - 13.9 999.0 -
09/07:30am NNE 20 28 - - - - - - - 14.1 999.0 -
09/07:00am NNE 18 31 - - - - - - - 16.3 998.7 -
09/06:30am NE 18 28 - - - - - - - 15.3 998.8 -
09/06:00am NE 18 27 - - - - - - - 15.1 999.3 -
09/05:45am NE 19 29 - - - - - - - 14.8 999.8 -
09/05:30am NE 19 26 - - - - - - - 14.7 1000.5 -
09/05:00am NE 19 29 - - - - - - - 15.5 1001.3 -
09/04:53am NE 19 29 - - - - - - - 15.7 1001.1 -
09/04:30am NE 15 23 - - - - - - - 15.9 1001.4 -
09/04:00am NE 16 23 - - - - - - - 16.4 1001.7 -
09/03:30am NE 17 23 - - - - - - - 18.4 1001.6 -
09/03:00am NE 18 25 - - - - - - - 17.9 1001.5 -
09/02:34am NE 16 26 - - - - - - - 17.8 1002.3 -
09/02:30am NE 16 21 - - - - - - - 17.3 1002.4 -
09/02:00am NE 15 22 - - - - - - - 17.7 1003.3 -
09/01:30am NNE 22 37 - - - - - - - 19.9 1004.3 -
09/01:26am NNE 20 32 - - - - - - - 19.9 1004.4 -
09/01:00am NE 20 28 - - - - - - - 19.7 1003.7 -
09/12:34am NE 19 31 - - - - - - - 19.7 1004.2 -
09/12:30am NE 18 27 - - - - - - - 19.6 1004.2 -
09/12:06am NE 18 28 - - - - - - - 19.3 1004.8 -
09/12:00am NE 17 25 - - - - - - - 19.2 1004.9 -
 
Date/Time
WST
Wind Sea
Height
m
Swell Vis
km
Cloud Weather Temp
°C
Press
hPa
Rain since
9am
mm
Dir  Spd
kts
Gust
kts
Height
m
Period
s
Dir
08/11:30pm NE 16 24 - - - - - - - 18.9 1005.5 -
08/11:13pm NE 17 27 - - - - - - - 19.2 1005.7 -
08/11:00pm NE 17 24 - - - - - - - 19.1 1005.9 -
08/10:30pm NE 17 25 - - - - - - - 19.0 1006.3 -
08/10:00pm NE 16 23 - - - - - - - 19.0 1007.2 -
08/09:30pm NE 15 21 - - - - - - - 19.0 1007.4 -
08/09:00pm NE 14 21 - - - - - - - 19.0 1007.7 -
08/08:30pm NE 13 19 - - - - - - - 19.0 1008.5 -
08/08:00pm NE 12 18 - - - - - - - 19.1 1009.0 -
08/07:30pm NE 12 15 - - - - - - - 19.1 1009.3 -
08/07:00pm NE 11 15 - - - - - - - 18.8 1009.4 -
08/06:30pm NE 10 16 - - - - - - - 18.9 1009.9 -
08/06:00pm NE 13 17 - - - - - - - 19.2 1009.0 -
08/05:30pm NE 12 18 - - - - - - - 19.4 1009.2 -
08/05:00pm NE 12 18 - - - - - - - 19.7 1009.0 -
08/04:30pm NE 13 18 - - - - - - - 19.7 1009.1 -
08/04:00pm NE 12 19 - - - - - - - 19.3 1009.8 -
08/03:30pm NE 14 19 - - - - - - - 20.4 1010.2 -
08/03:00pm NE 13 19 - - - - - - - 20.1 1010.4 -
08/02:30pm NE 15 21 - - - - - - - 20.4 1011.0 -
08/02:00pm NE 15 23 - - - - - - - 19.3 1011.4 -
08/01:30pm NE 14 21 - - - - - - - 19.6 1012.5 -
08/01:00pm NE 15 22 - - - - - - - 18.1 1013.1 -
08/12:30pm NE 16 25 - - - - - - - 18.8 1013.6 -
08/12:00pm NE 15 23 - - - - - - - 18.2 1014.6 -
08/11:30am NE 15 20 - - - - - - - 17.5 1015.2 -
08/11:00am NE 15 22 - - - - - - - 16.5 1016.0 -
08/10:34am NE 16 27 - - - - - - - 15.3 1016.0 -
08/10:30am NE 17 25 - - - - - - - 15.1 1016.2 -
08/10:00am NE 17 25 - - - - - - - 14.5 1016.6 -
08/09:30am NE 18 26 - - - - - - - 14.1 1016.9 -
08/09:00am NE 17 24 - - - - - - - 13.6 1017.0 -
08/08:30am NE 17 26 - - - - - - - 12.9 1017.4 -
08/08:00am NE 17 26 - - - - - - - 12.7 1017.4 -
08/07:45am NE 17 27 - - - - - - - 12.7 1017.3 -
08/07:30am NE 17 25 - - - - - - - 12.6 1017.2 -
08/07:00am ENE 15 21 - - - - - - - 12.2 1017.4 -
08/06:30am NE 15 23 - - - - - - - 12.1 1017.5 -
08/06:00am NE 14 25 - - - - - - - 12.1 1017.7 -
08/05:52am NE 15 25 - - - - - - - 12.0 1017.7 -
08/05:30am ENE 12 17 - - - - - - - 11.7 1017.7 -
08/05:00am ENE 14 23 - - - - - - - 11.6 1017.4 -
08/04:30am ENE 14 20 - - - - - - - 11.7 1017.6 -
08/04:00am ENE 12 17 - - - - - - - 11.5 1018.1 -
08/03:30am ENE 13 19 - - - - - - - 11.7 1018.3 -
08/03:00am ENE 13 20 - - - - - - - 12.0 1018.6 -
08/02:30am ENE 12 19 - - - - - - - 12.3 1019.2 -
08/02:00am ENE 12 16 - - - - - - - 12.4 1019.4 -
08/01:30am NE 13 17 - - - - - - - 12.9 1019.9 -
08/01:00am ENE 14 21 - - - - - - - 13.2 1019.8 -
08/12:30am ENE 12 16 - - - - - - - 13.0 1019.7 -
08/12:00am ENE 11 17 - - - - - - - 13.2 1020.3 -
 
Date/Time
WST
Wind Sea
Height
m
Swell Vis
km
Cloud Weather Temp
°C
Press
hPa
Rain since
9am
mm
Dir  Spd
kts
Gust
kts
Height
m
Period
s
Dir
07/11:30pm ENE 10 14 - - - - - - - 13.1 1020.7 -
07/11:00pm ENE 10 15 - - - - - - - 13.1 1020.8 -
07/10:30pm ENE 12 17 - - - - - - - 13.1 1020.9 -
07/10:00pm ENE 13 19 - - - - - - - 13.3 1021.0 -
07/09:30pm ENE 12 17 - - - - - - - 13.2 1020.9 -
07/09:00pm ENE 9 13 - - - - - - - 13.0 1020.9 -
07/08:30pm ENE 9 13 - - - - - - - 12.9 1021.0 -
07/08:00pm ENE 10 14 - - - - - - - 13.0 1021.1 -
07/07:30pm E 11 16 - - - - - - - 13.2 1021.0 -
07/07:00pm E 11 15 - - - - - - - 13.3 1021.4 -
07/06:30pm E 10 16 - - - - - - - 13.6 1021.5 -
07/06:00pm E 9 11 - - - - - - - 13.6 1021.7 -
07/05:30pm E 9 13 - - - - - - - 13.8 1021.6 -
07/05:00pm E 11 16 - - - - - - - 14.0 1021.7 -
07/04:30pm E 10 13 - - - - - - - 14.2 1021.6 -
07/04:00pm E 10 14 - - - - - - - 14.6 1021.9 -
07/03:30pm ENE 10 13 - - - - - - - 14.9 1021.9 -
07/03:00pm ENE 9 13 - - - - - - - 15.1 1022.3 -
07/02:30pm ENE 9 13 - - - - - - - 15.0 1022.5 -
07/02:00pm ENE 9 13 - - - - - - - 15.9 1022.6 -
07/01:30pm ENE 10 14 - - - - - - - 15.5 1023.0 -
07/01:00pm ENE 11 15 - - - - - - - 15.0 1023.2 -
07/12:30pm ENE 10 15 - - - - - - - 15.5 1024.1 -
07/12:00pm ENE 10 14 - - - - - - - 13.6 1024.5 -
07/11:30am ENE 11 15 - - - - - - - 13.6 1025.1 -
07/11:00am NE 13 19 - - - - - - - 12.7 1025.9 -
07/10:30am ENE 11 16 - - - - - - - 13.2 1026.4 -
07/10:00am ENE 11 16 - - - - - - - 12.3 1026.9 -
07/09:30am ENE 9 14 - - - - - - - 11.8 1027.0 -
07/09:00am ENE 9 11 - - - - - - - 11.3 1026.8 -
07/08:30am E 9 13 - - - - - - - 10.4 1026.3 -
07/08:00am E 8 11 - - - - - - - 9.4 1025.9 -
07/07:30am E 11 15 - - - - - - - 9.1 1025.5 -
07/07:00am E 10 14 - - - - - - - 8.7 1025.3 -
07/06:30am E 7 11 - - - - - - - 8.6 1025.4 -
07/06:00am ESE 8 11 - - - - - - - 8.7 1025.2 -
07/05:30am ESE 9 11 - - - - - - - 8.8 1025.3 -
07/05:00am E 8 11 - - - - - - - 8.7 1025.5 -
07/04:30am E 11 15 - - - - - - - 9.1 1025.5 -
07/04:00am E 8 11 - - - - - - - 9.3 1025.8 -
07/03:30am E 10 14 - - - - - - - 9.9 1025.9 -
07/03:00am E 9 12 - - - - - - - 10.3 1026.2 -
07/02:30am ESE 7 9 - - - - - - - 10.7 1026.6 -
07/02:00am SE 8 10 - - - - - - - 11.2 1026.6 -
07/01:30am SE 7 9 - - - - - - - 11.4 1026.7 -
07/01:00am SE 9 11 - - - - - - - 11.6 1026.1 -
07/12:30am SE 9 11 - - - - - - - 11.4 1025.8 -
07/12:00am ESE 9 12 - - - - - - - 11.2 1025.8 -
 
Date/Time
WST
Wind Sea
Height
m
Swell Vis
km
Cloud Weather Temp
°C
Press
hPa
Rain since
9am
mm
Dir  Spd
kts
Gust
kts
Height
m
Period
s
Dir
06/11:30pm SE 9 11 - - - - - - - 11.2 1025.8 -
06/11:00pm SE 8 10 - - - - - - - 11.5 1026.1 -
06/10:30pm ESE 7 9 - - - - - - - 11.4 1026.2 -
06/10:00pm ESE 8 10 - - - - - - - 11.7 1026.6 -
06/09:30pm ESE 8 11 - - - - - - - 12.0 1026.6 -
06/09:00pm ESE 10 12 - - - - - - - 12.7 1026.6 -
06/08:30pm ESE 10 14 - - - - - - - 12.8 1026.5 -

Other formats

Comma delimited format used in spreadsheet applications
http://www.bom.gov.au/fwo/IDW60701/IDW60701.95607.axf

JavaScript Object Notation format (JSON) in row-major order
http://www.bom.gov.au/fwo/IDW60701/IDW60701.95607.json

Data quality

Most of these data are generated automatically and are frequently updated. Quality checks on data are not normally performed. It is possible for incorrect values to appear. Refer to information at About Latest Weather Observations and please check the disclaimer before using these data.